sensor_id;sensor_type;location;lat;lon;timestamp;P1;durP1;ratioP1;P2;durP2;ratioP2
2464;SDS011;1244;54.326;10.074;2023-02-07T00:01:29;0.50;;;0.50;;
2464;SDS011;1244;54.326;10.074;2023-02-07T00:03:55;0.57;;;0.57;;
2464;SDS011;1244;54.326;10.074;2023-02-07T00:06:24;0.60;;;0.60;;
2464;SDS011;1244;54.326;10.074;2023-02-07T00:08:57;0.50;;;0.50;;
2464;SDS011;1244;54.326;10.074;2023-02-07T00:11:23;0.50;;;0.50;;
2464;SDS011;1244;54.326;10.074;2023-02-07T00:13:49;0.40;;;0.40;;
2464;SDS011;1244;54.326;10.074;2023-02-07T00:16:17;0.40;;;0.40;;
2464;SDS011;1244;54.326;10.074;2023-02-07T00:18:43;0.50;;;0.50;;
2464;SDS011;1244;54.326;10.074;2023-02-07T00:21:10;0.47;;;0.47;;
2464;SDS011;1244;54.326;10.074;2023-02-07T00:23:39;0.43;;;0.43;;
2464;SDS011;1244;54.326;10.074;2023-02-07T00:26:05;0.50;;;0.50;;
2464;SDS011;1244;54.326;10.074;2023-02-07T00:28:31;0.43;;;0.43;;
2464;SDS011;1244;54.326;10.074;2023-02-07T00:31:10;0.60;;;0.60;;
2464;SDS011;1244;54.326;10.074;2023-02-07T00:33:37;0.40;;;0.40;;
2464;SDS011;1244;54.326;10.074;2023-02-07T00:36:05;0.40;;;0.40;;
2464;SDS011;1244;54.326;10.074;2023-02-07T00:38:32;0.53;;;0.53;;
2464;SDS011;1244;54.326;10.074;2023-02-07T00:41:06;0.50;;;0.50;;
2464;SDS011;1244;54.326;10.074;2023-02-07T00:43:32;0.60;;;0.60;;
2464;SDS011;1244;54.326;10.074;2023-02-07T00:45:59;0.60;;;0.60;;
2464;SDS011;1244;54.326;10.074;2023-02-07T00:48:27;0.50;;;0.50;;
2464;SDS011;1244;54.326;10.074;2023-02-07T00:50:54;0.60;;;0.60;;
2464;SDS011;1244;54.326;10.074;2023-02-07T00:53:20;0.60;;;0.60;;
2464;SDS011;1244;54.326;10.074;2023-02-07T00:55:46;0.40;;;0.40;;
2464;SDS011;1244;54.326;10.074;2023-02-07T00:58:11;0.60;;;0.60;;
2464;SDS011;1244;54.326;10.074;2023-02-07T01:00:37;0.70;;;0.70;;
2464;SDS011;1244;54.326;10.074;2023-02-07T01:03:03;0.50;;;0.50;;
2464;SDS011;1244;54.326;10.074;2023-02-07T01:05:29;0.50;;;0.50;;
2464;SDS011;1244;54.326;10.074;2023-02-07T01:07:54;0.47;;;0.47;;
2464;SDS011;1244;54.326;10.074;2023-02-07T01:10:20;0.60;;;0.60;;
2464;SDS011;1244;54.326;10.074;2023-02-07T01:12:46;0.60;;;0.60;;
2464;SDS011;1244;54.326;10.074;2023-02-07T01:15:18;0.50;;;0.50;;
2464;SDS011;1244;54.326;10.074;2023-02-07T01:17:53;0.60;;;0.60;;
2464;SDS011;1244;54.326;10.074;2023-02-07T01:20:18;0.43;;;0.43;;
2464;SDS011;1244;54.326;10.074;2023-02-07T01:22:44;0.60;;;0.60;;
2464;SDS011;1244;54.326;10.074;2023-02-07T01:25:09;0.60;;;0.60;;
2464;SDS011;1244;54.326;10.074;2023-02-07T01:27:35;0.50;;;0.50;;
2464;SDS011;1244;54.326;10.074;2023-02-07T01:30:01;0.50;;;0.50;;
2464;SDS011;1244;54.326;10.074;2023-02-07T01:32:27;0.60;;;0.60;;
2464;SDS011;1244;54.326;10.074;2023-02-07T01:34:53;0.63;;;0.63;;
2464;SDS011;1244;54.326;10.074;2023-02-07T01:37:18;0.60;;;0.60;;
2464;SDS011;1244;54.326;10.074;2023-02-07T01:39:45;0.60;;;0.60;;
2464;SDS011;1244;54.326;10.074;2023-02-07T01:42:14;0.60;;;0.60;;
2464;SDS011;1244;54.326;10.074;2023-02-07T01:47:05;0.60;;;0.60;;
2464;SDS011;1244;54.326;10.074;2023-02-07T01:49:36;0.70;;;0.70;;
2464;SDS011;1244;54.326;10.074;2023-02-07T01:52:06;0.50;;;0.50;;
2464;SDS011;1244;54.326;10.074;2023-02-07T01:54:35;0.50;;;0.50;;
2464;SDS011;1244;54.326;10.074;2023-02-07T01:57:03;0.50;;;0.50;;
2464;SDS011;1244;54.326;10.074;2023-02-07T01:59:31;0.60;;;0.60;;
2464;SDS011;1244;54.326;10.074;2023-02-07T02:01:59;0.60;;;0.60;;
2464;SDS011;1244;54.326;10.074;2023-02-07T02:04:27;0.50;;;0.50;;
2464;SDS011;1244;54.326;10.074;2023-02-07T02:06:52;0.60;;;0.60;;
2464;SDS011;1244;54.326;10.074;2023-02-07T02:09:19;0.70;;;0.70;;
2464;SDS011;1244;54.326;10.074;2023-02-07T02:17:29;0.57;;;0.57;;
2464;SDS011;1244;54.326;10.074;2023-02-07T02:20:34;0.40;;;0.40;;
2464;SDS011;1244;54.326;10.074;2023-02-07T02:26:05;0.57;;;0.57;;
2464;SDS011;1244;54.326;10.074;2023-02-07T02:29:04;0.50;;;0.50;;
2464;SDS011;1244;54.326;10.074;2023-02-07T02:42:58;0.60;;;0.60;;
2464;SDS011;1244;54.326;10.074;2023-02-07T02:45:41;0.60;;;0.60;;
2464;SDS011;1244;54.326;10.074;2023-02-07T02:48:16;0.60;;;0.60;;
2464;SDS011;1244;54.326;10.074;2023-02-07T02:50:47;0.60;;;0.60;;
2464;SDS011;1244;54.326;10.074;2023-02-07T02:53:13;0.50;;;0.50;;
2464;SDS011;1244;54.326;10.074;2023-02-07T03:01:22;0.53;;;0.53;;
2464;SDS011;1244;54.326;10.074;2023-02-07T03:06:55;0.60;;;0.60;;
2464;SDS011;1244;54.326;10.074;2023-02-07T03:12:15;0.60;;;0.60;;
2464;SDS011;1244;54.326;10.074;2023-02-07T03:20:42;0.60;;;0.60;;
2464;SDS011;1244;54.326;10.074;2023-02-07T03:23:12;0.80;;;0.80;;
2464;SDS011;1244;54.326;10.074;2023-02-07T03:25:40;0.60;;;0.60;;
2464;SDS011;1244;54.326;10.074;2023-02-07T03:28:08;0.70;;;0.70;;
2464;SDS011;1244;54.326;10.074;2023-02-07T03:30:37;0.67;;;0.67;;
2464;SDS011;1244;54.326;10.074;2023-02-07T03:33:04;0.60;;;0.60;;
2464;SDS011;1244;54.326;10.074;2023-02-07T03:35:40;0.50;;;0.50;;
2464;SDS011;1244;54.326;10.074;2023-02-07T03:38:06;0.50;;;0.50;;
2464;SDS011;1244;54.326;10.074;2023-02-07T03:40:38;0.60;;;0.60;;
2464;SDS011;1244;54.326;10.074;2023-02-07T03:45:40;0.60;;;0.60;;
2464;SDS011;1244;54.326;10.074;2023-02-07T03:48:06;0.50;;;0.50;;
2464;SDS011;1244;54.326;10.074;2023-02-07T03:50:34;0.50;;;0.50;;
2464;SDS011;1244;54.326;10.074;2023-02-07T03:53:20;0.50;;;0.50;;
2464;SDS011;1244;54.326;10.074;2023-02-07T03:55:46;0.50;;;0.50;;
2464;SDS011;1244;54.326;10.074;2023-02-07T03:58:11;0.53;;;0.53;;
2464;SDS011;1244;54.326;10.074;2023-02-07T04:00:37;0.60;;;0.60;;
2464;SDS011;1244;54.326;10.074;2023-02-07T04:03:03;0.70;;;0.70;;
2464;SDS011;1244;54.326;10.074;2023-02-07T04:05:29;0.50;;;0.50;;
2464;SDS011;1244;54.326;10.074;2023-02-07T04:07:55;0.60;;;0.60;;
2464;SDS011;1244;54.326;10.074;2023-02-07T04:10:20;0.50;;;0.50;;
2464;SDS011;1244;54.326;10.074;2023-02-07T04:12:46;0.50;;;0.50;;
2464;SDS011;1244;54.326;10.074;2023-02-07T04:15:14;0.70;;;0.70;;
2464;SDS011;1244;54.326;10.074;2023-02-07T04:17:40;0.60;;;0.60;;
2464;SDS011;1244;54.326;10.074;2023-02-07T04:20:06;0.70;;;0.70;;
2464;SDS011;1244;54.326;10.074;2023-02-07T04:22:32;0.60;;;0.60;;
2464;SDS011;1244;54.326;10.074;2023-02-07T04:24:58;0.60;;;0.60;;
2464;SDS011;1244;54.326;10.074;2023-02-07T04:27:23;0.50;;;0.50;;
2464;SDS011;1244;54.326;10.074;2023-02-07T04:29:49;0.40;;;0.40;;
2464;SDS011;1244;54.326;10.074;2023-02-07T04:32:58;0.50;;;0.50;;
2464;SDS011;1244;54.326;10.074;2023-02-07T04:35:24;0.50;;;0.50;;
2464;SDS011;1244;54.326;10.074;2023-02-07T04:37:50;0.60;;;0.60;;
2464;SDS011;1244;54.326;10.074;2023-02-07T04:40:16;0.60;;;0.60;;
2464;SDS011;1244;54.326;10.074;2023-02-07T04:42:44;0.60;;;0.60;;
2464;SDS011;1244;54.326;10.074;2023-02-07T04:45:10;0.50;;;0.50;;
2464;SDS011;1244;54.326;10.074;2023-02-07T04:47:35;0.50;;;0.50;;
2464;SDS011;1244;54.326;10.074;2023-02-07T04:50:01;0.47;;;0.47;;
2464;SDS011;1244;54.326;10.074;2023-02-07T04:52:27;0.50;;;0.50;;
2464;SDS011;1244;54.326;10.074;2023-02-07T04:54:52;0.60;;;0.60;;
2464;SDS011;1244;54.326;10.074;2023-02-07T04:57:18;0.77;;;0.77;;
2464;SDS011;1244;54.326;10.074;2023-02-07T04:59:47;0.60;;;0.60;;
2464;SDS011;1244;54.326;10.074;2023-02-07T05:02:12;0.50;;;0.50;;
2464;SDS011;1244;54.326;10.074;2023-02-07T05:04:38;0.60;;;0.60;;
2464;SDS011;1244;54.326;10.074;2023-02-07T05:07:03;0.70;;;0.70;;
2464;SDS011;1244;54.326;10.074;2023-02-07T05:09:29;0.40;;;0.40;;
2464;SDS011;1244;54.326;10.074;2023-02-07T05:11:58;0.50;;;0.50;;
2464;SDS011;1244;54.326;10.074;2023-02-07T05:14:29;0.70;;;0.70;;
2464;SDS011;1244;54.326;10.074;2023-02-07T05:16:57;0.57;;;0.57;;
2464;SDS011;1244;54.326;10.074;2023-02-07T05:19:29;0.70;;;0.70;;
2464;SDS011;1244;54.326;10.074;2023-02-07T05:21:55;0.50;;;0.50;;
2464;SDS011;1244;54.326;10.074;2023-02-07T05:24:20;0.57;;;0.57;;
2464;SDS011;1244;54.326;10.074;2023-02-07T05:26:55;0.70;;;0.70;;
2464;SDS011;1244;54.326;10.074;2023-02-07T05:30:09;0.63;;;0.63;;
2464;SDS011;1244;54.326;10.074;2023-02-07T05:32:53;0.50;;;0.50;;
2464;SDS011;1244;54.326;10.074;2023-02-07T05:35:38;0.60;;;0.60;;
2464;SDS011;1244;54.326;10.074;2023-02-07T05:38:29;0.50;;;0.50;;
2464;SDS011;1244;54.326;10.074;2023-02-07T05:41:06;0.70;;;0.70;;
2464;SDS011;1244;54.326;10.074;2023-02-07T05:43:32;0.60;;;0.60;;
2464;SDS011;1244;54.326;10.074;2023-02-07T05:45:57;0.53;;;0.53;;
2464;SDS011;1244;54.326;10.074;2023-02-07T05:48:23;0.50;;;0.50;;
2464;SDS011;1244;54.326;10.074;2023-02-07T05:50:57;0.70;;;0.70;;
2464;SDS011;1244;54.326;10.074;2023-02-07T05:53:22;0.60;;;0.60;;
2464;SDS011;1244;54.326;10.074;2023-02-07T05:55:49;0.60;;;0.60;;
2464;SDS011;1244;54.326;10.074;2023-02-07T05:58:16;0.60;;;0.60;;
2464;SDS011;1244;54.326;10.074;2023-02-07T06:00:42;0.50;;;0.50;;
2464;SDS011;1244;54.326;10.074;2023-02-07T06:03:07;0.70;;;0.70;;
2464;SDS011;1244;54.326;10.074;2023-02-07T06:05:33;0.50;;;0.50;;
2464;SDS011;1244;54.326;10.074;2023-02-07T06:07:59;0.60;;;0.60;;
2464;SDS011;1244;54.326;10.074;2023-02-07T06:10:24;0.50;;;0.50;;
2464;SDS011;1244;54.326;10.074;2023-02-07T06:12:50;0.70;;;0.70;;
2464;SDS011;1244;54.326;10.074;2023-02-07T06:15:15;0.60;;;0.60;;
2464;SDS011;1244;54.326;10.074;2023-02-07T06:17:41;0.70;;;0.70;;
2464;SDS011;1244;54.326;10.074;2023-02-07T06:20:07;0.50;;;0.50;;
2464;SDS011;1244;54.326;10.074;2023-02-07T06:22:32;0.50;;;0.50;;
2464;SDS011;1244;54.326;10.074;2023-02-07T06:24:58;0.60;;;0.60;;
2464;SDS011;1244;54.326;10.074;2023-02-07T06:27:24;0.60;;;0.60;;
2464;SDS011;1244;54.326;10.074;2023-02-07T06:29:58;0.60;;;0.60;;
2464;SDS011;1244;54.326;10.074;2023-02-07T06:32:24;0.50;;;0.50;;
2464;SDS011;1244;54.326;10.074;2023-02-07T06:34:50;0.80;;;0.80;;
2464;SDS011;1244;54.326;10.074;2023-02-07T06:37:15;0.60;;;0.60;;
2464;SDS011;1244;54.326;10.074;2023-02-07T06:39:41;0.50;;;0.50;;
2464;SDS011;1244;54.326;10.074;2023-02-07T06:42:12;0.70;;;0.70;;
2464;SDS011;1244;54.326;10.074;2023-02-07T06:44:53;0.70;;;0.70;;
2464;SDS011;1244;54.326;10.074;2023-02-07T06:47:19;0.70;;;0.70;;
2464;SDS011;1244;54.326;10.074;2023-02-07T06:49:45;0.70;;;0.70;;
2464;SDS011;1244;54.326;10.074;2023-02-07T06:52:11;0.80;;;0.80;;
2464;SDS011;1244;54.326;10.074;2023-02-07T06:54:37;0.73;;;0.73;;
2464;SDS011;1244;54.326;10.074;2023-02-07T06:57:02;0.70;;;0.70;;
2464;SDS011;1244;54.326;10.074;2023-02-07T06:59:28;0.50;;;0.50;;
2464;SDS011;1244;54.326;10.074;2023-02-07T07:01:53;0.60;;;0.60;;
2464;SDS011;1244;54.326;10.074;2023-02-07T07:04:19;0.63;;;0.63;;
2464;SDS011;1244;54.326;10.074;2023-02-07T07:06:45;0.70;;;0.70;;
2464;SDS011;1244;54.326;10.074;2023-02-07T07:09:11;0.70;;;0.70;;
2464;SDS011;1244;54.326;10.074;2023-02-07T07:14:24;0.67;;;0.67;;
2464;SDS011;1244;54.326;10.074;2023-02-07T07:16:56;0.60;;;0.60;;
2464;SDS011;1244;54.326;10.074;2023-02-07T07:19:23;0.67;;;0.67;;
2464;SDS011;1244;54.326;10.074;2023-02-07T07:21:48;0.70;;;0.70;;
2464;SDS011;1244;54.326;10.074;2023-02-07T07:24:14;0.60;;;0.60;;
2464;SDS011;1244;54.326;10.074;2023-02-07T07:26:49;0.60;;;0.60;;
2464;SDS011;1244;54.326;10.074;2023-02-07T07:29:14;0.60;;;0.60;;
2464;SDS011;1244;54.326;10.074;2023-02-07T07:31:40;0.60;;;0.60;;
2464;SDS011;1244;54.326;10.074;2023-02-07T07:34:06;0.60;;;0.60;;
2464;SDS011;1244;54.326;10.074;2023-02-07T07:36:31;0.70;;;0.70;;
2464;SDS011;1244;54.326;10.074;2023-02-07T07:38:57;0.50;;;0.50;;
2464;SDS011;1244;54.326;10.074;2023-02-07T07:41:22;0.70;;;0.70;;
2464;SDS011;1244;54.326;10.074;2023-02-07T07:43:48;0.60;;;0.60;;
2464;SDS011;1244;54.326;10.074;2023-02-07T07:46:13;0.60;;;0.60;;
2464;SDS011;1244;54.326;10.074;2023-02-07T07:48:39;0.70;;;0.70;;
2464;SDS011;1244;54.326;10.074;2023-02-07T07:51:04;0.60;;;0.60;;
2464;SDS011;1244;54.326;10.074;2023-02-07T07:53:31;0.60;;;0.60;;
2464;SDS011;1244;54.326;10.074;2023-02-07T07:55:57;0.60;;;0.60;;
2464;SDS011;1244;54.326;10.074;2023-02-07T07:58:25;0.50;;;0.50;;
2464;SDS011;1244;54.326;10.074;2023-02-07T08:00:51;0.70;;;0.70;;
2464;SDS011;1244;54.326;10.074;2023-02-07T08:03:17;0.50;;;0.50;;
2464;SDS011;1244;54.326;10.074;2023-02-07T08:05:43;0.60;;;0.60;;
2464;SDS011;1244;54.326;10.074;2023-02-07T08:08:10;0.60;;;0.60;;
2464;SDS011;1244;54.326;10.074;2023-02-07T08:10:36;0.63;;;0.63;;
2464;SDS011;1244;54.326;10.074;2023-02-07T08:13:02;0.50;;;0.50;;
2464;SDS011;1244;54.326;10.074;2023-02-07T08:15:28;0.60;;;0.60;;
2464;SDS011;1244;54.326;10.074;2023-02-07T08:17:53;0.70;;;0.70;;
2464;SDS011;1244;54.326;10.074;2023-02-07T08:20:19;0.80;;;0.80;;
2464;SDS011;1244;54.326;10.074;2023-02-07T08:22:54;0.70;;;0.70;;
2464;SDS011;1244;54.326;10.074;2023-02-07T08:25:21;0.60;;;0.60;;
2464;SDS011;1244;54.326;10.074;2023-02-07T08:27:47;0.40;;;0.40;;
2464;SDS011;1244;54.326;10.074;2023-02-07T08:30:12;0.50;;;0.50;;
2464;SDS011;1244;54.326;10.074;2023-02-07T08:32:39;0.60;;;0.60;;
2464;SDS011;1244;54.326;10.074;2023-02-07T08:35:33;0.60;;;0.60;;
2464;SDS011;1244;54.326;10.074;2023-02-07T08:38:23;0.40;;;0.40;;
2464;SDS011;1244;54.326;10.074;2023-02-07T08:41:07;0.50;;;0.50;;
2464;SDS011;1244;54.326;10.074;2023-02-07T08:44:01;0.60;;;0.60;;
2464;SDS011;1244;54.326;10.074;2023-02-07T08:46:27;0.50;;;0.50;;
2464;SDS011;1244;54.326;10.074;2023-02-07T08:48:55;0.50;;;0.50;;
2464;SDS011;1244;54.326;10.074;2023-02-07T08:51:21;0.50;;;0.50;;
2464;SDS011;1244;54.326;10.074;2023-02-07T08:53:46;0.60;;;0.60;;
2464;SDS011;1244;54.326;10.074;2023-02-07T08:56:12;0.50;;;0.50;;
2464;SDS011;1244;54.326;10.074;2023-02-07T08:58:57;0.40;;;0.40;;
2464;SDS011;1244;54.326;10.074;2023-02-07T09:01:22;0.50;;;0.50;;
2464;SDS011;1244;54.326;10.074;2023-02-07T09:03:47;0.60;;;0.60;;
2464;SDS011;1244;54.326;10.074;2023-02-07T09:06:13;0.50;;;0.50;;
2464;SDS011;1244;54.326;10.074;2023-02-07T09:08:38;0.50;;;0.50;;
2464;SDS011;1244;54.326;10.074;2023-02-07T09:11:04;0.50;;;0.50;;
2464;SDS011;1244;54.326;10.074;2023-02-07T09:13:29;0.47;;;0.47;;
2464;SDS011;1244;54.326;10.074;2023-02-07T09:15:55;0.40;;;0.40;;
2464;SDS011;1244;54.326;10.074;2023-02-07T09:18:22;0.40;;;0.40;;
2464;SDS011;1244;54.326;10.074;2023-02-07T09:20:49;0.47;;;0.47;;
2464;SDS011;1244;54.326;10.074;2023-02-07T09:23:15;0.53;;;0.53;;
2464;SDS011;1244;54.326;10.074;2023-02-07T09:25:47;0.40;;;0.40;;
2464;SDS011;1244;54.326;10.074;2023-02-07T09:28:15;0.40;;;0.40;;
2464;SDS011;1244;54.326;10.074;2023-02-07T09:30:41;0.47;;;0.47;;
2464;SDS011;1244;54.326;10.074;2023-02-07T09:33:08;0.43;;;0.43;;
2464;SDS011;1244;54.326;10.074;2023-02-07T09:35:35;0.50;;;0.50;;
2464;SDS011;1244;54.326;10.074;2023-02-07T09:38:05;0.50;;;0.50;;
2464;SDS011;1244;54.326;10.074;2023-02-07T09:40:33;0.50;;;0.50;;
2464;SDS011;1244;54.326;10.074;2023-02-07T09:45:56;0.40;;;0.40;;
2464;SDS011;1244;54.326;10.074;2023-02-07T09:48:40;0.40;;;0.40;;
2464;SDS011;1244;54.326;10.074;2023-02-07T09:51:30;0.40;;;0.40;;
2464;SDS011;1244;54.326;10.074;2023-02-07T09:53:59;0.30;;;0.30;;
2464;SDS011;1244;54.326;10.074;2023-02-07T09:56:28;0.33;;;0.33;;
2464;SDS011;1244;54.326;10.074;2023-02-07T09:59:02;0.50;;;0.50;;
2464;SDS011;1244;54.326;10.074;2023-02-07T10:01:45;0.50;;;0.50;;
2464;SDS011;1244;54.326;10.074;2023-02-07T10:06:53;0.40;;;0.40;;
2464;SDS011;1244;54.326;10.074;2023-02-07T10:09:25;0.40;;;0.40;;
2464;SDS011;1244;54.326;10.074;2023-02-07T10:12:09;0.37;;;0.37;;
2464;SDS011;1244;54.326;10.074;2023-02-07T10:26:11;0.33;;;0.33;;
2464;SDS011;1244;54.326;10.074;2023-02-07T10:31:50;0.30;;;0.30;;
2464;SDS011;1244;54.326;10.074;2023-02-07T10:34:22;0.30;;;0.30;;
2464;SDS011;1244;54.326;10.074;2023-02-07T10:36:52;0.37;;;0.37;;
2464;SDS011;1244;54.326;10.074;2023-02-07T10:39:21;0.40;;;0.40;;
2464;SDS011;1244;54.326;10.074;2023-02-07T10:41:48;0.33;;;0.33;;
2464;SDS011;1244;54.326;10.074;2023-02-07T10:44:17;0.40;;;0.40;;
2464;SDS011;1244;54.326;10.074;2023-02-07T10:46:44;0.20;;;0.20;;
2464;SDS011;1244;54.326;10.074;2023-02-07T10:49:16;0.20;;;0.20;;
2464;SDS011;1244;54.326;10.074;2023-02-07T10:51:44;0.20;;;0.20;;
2464;SDS011;1244;54.326;10.074;2023-02-07T10:54:11;0.30;;;0.30;;
2464;SDS011;1244;54.326;10.074;2023-02-07T10:59:28;0.30;;;0.30;;
2464;SDS011;1244;54.326;10.074;2023-02-07T11:02:02;0.30;;;0.30;;
2464;SDS011;1244;54.326;10.074;2023-02-07T11:04:47;0.20;;;0.20;;
2464;SDS011;1244;54.326;10.074;2023-02-07T11:07:14;0.30;;;0.30;;
2464;SDS011;1244;54.326;10.074;2023-02-07T11:09:41;0.20;;;0.20;;
2464;SDS011;1244;54.326;10.074;2023-02-07T11:12:13;0.20;;;0.20;;
2464;SDS011;1244;54.326;10.074;2023-02-07T11:14:40;0.23;;;0.23;;
2464;SDS011;1244;54.326;10.074;2023-02-07T11:17:25;0.20;;;0.20;;
2464;SDS011;1244;54.326;10.074;2023-02-07T11:19:50;0.20;;;0.20;;
2464;SDS011;1244;54.326;10.074;2023-02-07T11:22:18;0.20;;;0.20;;
2464;SDS011;1244;54.326;10.074;2023-02-07T11:24:45;0.20;;;0.20;;
2464;SDS011;1244;54.326;10.074;2023-02-07T11:27:13;0.20;;;0.20;;
2464;SDS011;1244;54.326;10.074;2023-02-07T11:29:45;0.20;;;0.20;;
2464;SDS011;1244;54.326;10.074;2023-02-07T11:32:18;0.20;;;0.20;;
2464;SDS011;1244;54.326;10.074;2023-02-07T11:34:46;0.20;;;0.20;;
2464;SDS011;1244;54.326;10.074;2023-02-07T11:39:42;0.10;;;0.10;;
2464;SDS011;1244;54.326;10.074;2023-02-07T11:42:12;0.20;;;0.20;;
2464;SDS011;1244;54.326;10.074;2023-02-07T11:44:42;0.20;;;0.20;;
2464;SDS011;1244;54.326;10.074;2023-02-07T11:47:12;0.20;;;0.20;;
2464;SDS011;1244;54.326;10.074;2023-02-07T11:49:49;0.10;;;0.10;;
2464;SDS011;1244;54.326;10.074;2023-02-07T11:52:18;0.20;;;0.20;;
2464;SDS011;1244;54.326;10.074;2023-02-07T11:54:49;0.20;;;0.20;;
2464;SDS011;1244;54.326;10.074;2023-02-07T11:57:18;0.20;;;0.20;;
2464;SDS011;1244;54.326;10.074;2023-02-07T11:59:47;0.20;;;0.20;;
2464;SDS011;1244;54.326;10.074;2023-02-07T12:02:31;0.20;;;0.20;;
2464;SDS011;1244;54.326;10.074;2023-02-07T12:05:08;0.20;;;0.20;;
2464;SDS011;1244;54.326;10.074;2023-02-07T12:07:44;0.20;;;0.20;;
2464;SDS011;1244;54.326;10.074;2023-02-07T12:10:18;0.20;;;0.20;;
2464;SDS011;1244;54.326;10.074;2023-02-07T12:12:58;0.10;;;0.10;;
2464;SDS011;1244;54.326;10.074;2023-02-07T12:15:30;0.10;;;0.10;;
2464;SDS011;1244;54.326;10.074;2023-02-07T12:18:22;0.10;;;0.10;;
2464;SDS011;1244;54.326;10.074;2023-02-07T12:21:16;0.10;;;0.10;;
2464;SDS011;1244;54.326;10.074;2023-02-07T12:24:26;0.20;;;0.20;;
2464;SDS011;1244;54.326;10.074;2023-02-07T12:29:06;0.13;;;0.13;;
2464;SDS011;1244;54.326;10.074;2023-02-07T12:32:00;0.13;;;0.13;;
2464;SDS011;1244;54.326;10.074;2023-02-07T12:34:42;0.20;;;0.20;;
2464;SDS011;1244;54.326;10.074;2023-02-07T12:37:20;0.10;;;0.10;;
2464;SDS011;1244;54.326;10.074;2023-02-07T12:39:58;0.10;;;0.10;;
2464;SDS011;1244;54.326;10.074;2023-02-07T12:42:39;0.10;;;0.10;;
2464;SDS011;1244;54.326;10.074;2023-02-07T12:45:40;0.10;;;0.10;;
2464;SDS011;1244;54.326;10.074;2023-02-07T12:51:21;0.10;;;0.10;;
2464;SDS011;1244;54.326;10.074;2023-02-07T12:56:52;0.00;;;0.00;;
2464;SDS011;1244;54.326;10.074;2023-02-07T12:59:56;0.00;;;0.00;;
2464;SDS011;1244;54.326;10.074;2023-02-07T13:02:33;0.00;;;0.00;;
2464;SDS011;1244;54.326;10.074;2023-02-07T13:05:10;0.00;;;0.00;;
2464;SDS011;1244;54.326;10.074;2023-02-07T13:16:08;0.00;;;0.00;;
2464;SDS011;1244;54.326;10.074;2023-02-07T13:18:52;0.00;;;0.00;;
2464;SDS011;1244;54.326;10.074;2023-02-07T13:24:27;0.00;;;0.00;;
2464;SDS011;1244;54.326;10.074;2023-02-07T13:26:57;0.00;;;0.00;;
2464;SDS011;1244;54.326;10.074;2023-02-07T13:29:27;0.00;;;0.00;;
2464;SDS011;1244;54.326;10.074;2023-02-07T13:31:57;0.00;;;0.00;;
2464;SDS011;1244;54.326;10.074;2023-02-07T13:34:31;0.00;;;0.00;;
2464;SDS011;1244;54.326;10.074;2023-02-07T13:37:08;0.00;;;0.00;;
2464;SDS011;1244;54.326;10.074;2023-02-07T13:42:53;0.00;;;0.00;;
2464;SDS011;1244;54.326;10.074;2023-02-07T13:48:25;0.00;;;0.00;;
2464;SDS011;1244;54.326;10.074;2023-02-07T13:51:00;0.00;;;0.00;;
2464;SDS011;1244;54.326;10.074;2023-02-07T13:53:58;0.00;;;0.00;;
2464;SDS011;1244;54.326;10.074;2023-02-07T13:56:54;0.00;;;0.00;;
2464;SDS011;1244;54.326;10.074;2023-02-07T13:59:40;0.00;;;0.00;;
2464;SDS011;1244;54.326;10.074;2023-02-07T14:02:19;0.00;;;0.00;;
2464;SDS011;1244;54.326;10.074;2023-02-07T14:04:56;0.00;;;0.00;;
2464;SDS011;1244;54.326;10.074;2023-02-07T14:07:30;0.00;;;0.00;;
2464;SDS011;1244;54.326;10.074;2023-02-07T14:09:59;0.00;;;0.00;;
2464;SDS011;1244;54.326;10.074;2023-02-07T14:12:32;0.00;;;0.00;;
2464;SDS011;1244;54.326;10.074;2023-02-07T14:15:16;0.00;;;0.00;;
2464;SDS011;1244;54.326;10.074;2023-02-07T14:17:55;0.00;;;0.00;;
2464;SDS011;1244;54.326;10.074;2023-02-07T14:25:39;0.00;;;0.00;;
2464;SDS011;1244;54.326;10.074;2023-02-07T14:28:17;0.00;;;0.00;;
2464;SDS011;1244;54.326;10.074;2023-02-07T14:33:15;0.00;;;0.00;;
2464;SDS011;1244;54.326;10.074;2023-02-07T14:36:05;0.00;;;0.00;;
2464;SDS011;1244;54.326;10.074;2023-02-07T14:38:41;0.00;;;0.00;;
2464;SDS011;1244;54.326;10.074;2023-02-07T14:41:13;0.00;;;0.00;;
2464;SDS011;1244;54.326;10.074;2023-02-07T14:43:42;0.00;;;0.00;;
2464;SDS011;1244;54.326;10.074;2023-02-07T14:46:23;0.00;;;0.00;;
2464;SDS011;1244;54.326;10.074;2023-02-07T14:48:51;0.00;;;0.00;;
2464;SDS011;1244;54.326;10.074;2023-02-07T14:51:22;0.00;;;0.00;;
2464;SDS011;1244;54.326;10.074;2023-02-07T14:56:30;0.00;;;0.00;;
2464;SDS011;1244;54.326;10.074;2023-02-07T14:59:06;0.00;;;0.00;;
2464;SDS011;1244;54.326;10.074;2023-02-07T15:01:35;0.00;;;0.00;;
2464;SDS011;1244;54.326;10.074;2023-02-07T15:04:02;0.00;;;0.00;;
2464;SDS011;1244;54.326;10.074;2023-02-07T15:06:34;0.10;;;0.10;;
2464;SDS011;1244;54.326;10.074;2023-02-07T15:09:03;0.00;;;0.00;;
2464;SDS011;1244;54.326;10.074;2023-02-07T15:11:29;0.10;;;0.10;;
2464;SDS011;1244;54.326;10.074;2023-02-07T15:13:56;0.10;;;0.10;;
2464;SDS011;1244;54.326;10.074;2023-02-07T15:16:27;0.20;;;0.20;;
2464;SDS011;1244;54.326;10.074;2023-02-07T15:18:57;0.20;;;0.20;;
2464;SDS011;1244;54.326;10.074;2023-02-07T15:24:15;0.20;;;0.20;;
2464;SDS011;1244;54.326;10.074;2023-02-07T15:26:40;0.20;;;0.20;;
2464;SDS011;1244;54.326;10.074;2023-02-07T15:29:15;0.17;;;0.17;;
2464;SDS011;1244;54.326;10.074;2023-02-07T15:31:46;0.20;;;0.20;;
2464;SDS011;1244;54.326;10.074;2023-02-07T15:34:16;0.20;;;0.20;;
2464;SDS011;1244;54.326;10.074;2023-02-07T15:36:47;0.20;;;0.20;;
2464;SDS011;1244;54.326;10.074;2023-02-07T15:39:15;0.20;;;0.20;;
2464;SDS011;1244;54.326;10.074;2023-02-07T15:41:44;0.20;;;0.20;;
2464;SDS011;1244;54.326;10.074;2023-02-07T15:46:54;0.20;;;0.20;;
2464;SDS011;1244;54.326;10.074;2023-02-07T15:51:52;0.27;;;0.27;;
2464;SDS011;1244;54.326;10.074;2023-02-07T15:54:21;0.30;;;0.30;;
2464;SDS011;1244;54.326;10.074;2023-02-07T15:56:48;0.20;;;0.20;;
2464;SDS011;1244;54.326;10.074;2023-02-07T15:59:17;0.20;;;0.20;;
2464;SDS011;1244;54.326;10.074;2023-02-07T16:01:50;0.23;;;0.23;;
2464;SDS011;1244;54.326;10.074;2023-02-07T16:04:18;0.30;;;0.30;;
2464;SDS011;1244;54.326;10.074;2023-02-07T16:06:58;0.13;;;0.13;;
2464;SDS011;1244;54.326;10.074;2023-02-07T16:09:38;0.30;;;0.30;;
2464;SDS011;1244;54.326;10.074;2023-02-07T16:12:20;0.30;;;0.30;;
2464;SDS011;1244;54.326;10.074;2023-02-07T16:14:56;0.30;;;0.30;;
2464;SDS011;1244;54.326;10.074;2023-02-07T16:17:36;0.30;;;0.30;;
2464;SDS011;1244;54.326;10.074;2023-02-07T16:20:06;0.20;;;0.20;;
2464;SDS011;1244;54.326;10.074;2023-02-07T16:22:33;0.30;;;0.30;;
2464;SDS011;1244;54.326;10.074;2023-02-07T16:24:59;0.20;;;0.20;;
2464;SDS011;1244;54.326;10.074;2023-02-07T16:27:26;0.20;;;0.20;;
2464;SDS011;1244;54.326;10.074;2023-02-07T16:29:56;0.20;;;0.20;;
2464;SDS011;1244;54.326;10.074;2023-02-07T16:32:23;0.20;;;0.20;;
2464;SDS011;1244;54.326;10.074;2023-02-07T16:34:51;0.30;;;0.30;;
2464;SDS011;1244;54.326;10.074;2023-02-07T16:37:17;0.33;;;0.33;;
2464;SDS011;1244;54.326;10.074;2023-02-07T16:39:42;0.27;;;0.27;;
2464;SDS011;1244;54.326;10.074;2023-02-07T16:42:11;0.40;;;0.40;;
2464;SDS011;1244;54.326;10.074;2023-02-07T16:44:38;0.30;;;0.30;;
2464;SDS011;1244;54.326;10.074;2023-02-07T16:47:04;0.30;;;0.30;;
2464;SDS011;1244;54.326;10.074;2023-02-07T16:49:30;0.20;;;0.20;;
2464;SDS011;1244;54.326;10.074;2023-02-07T16:51:56;0.20;;;0.20;;
2464;SDS011;1244;54.326;10.074;2023-02-07T16:54:22;0.20;;;0.20;;
2464;SDS011;1244;54.326;10.074;2023-02-07T16:56:49;0.20;;;0.20;;
2464;SDS011;1244;54.326;10.074;2023-02-07T16:59:18;0.30;;;0.30;;
2464;SDS011;1244;54.326;10.074;2023-02-07T17:01:45;0.20;;;0.20;;
2464;SDS011;1244;54.326;10.074;2023-02-07T17:04:11;0.30;;;0.30;;
2464;SDS011;1244;54.326;10.074;2023-02-07T17:06:38;0.40;;;0.40;;
2464;SDS011;1244;54.326;10.074;2023-02-07T17:09:09;0.40;;;0.40;;
2464;SDS011;1244;54.326;10.074;2023-02-07T17:11:48;0.30;;;0.30;;
2464;SDS011;1244;54.326;10.074;2023-02-07T17:14:14;0.20;;;0.20;;
2464;SDS011;1244;54.326;10.074;2023-02-07T17:16:39;0.30;;;0.30;;